Time;durP1;ratioP1;P1;durP2;ratioP2;P2;SDS_P1;SDS_P2;PMS_P1;PMS_P2;Temp;Humidity;BMP_temperature;BMP_pressure;BME280_temperature;BME280_humidity;BME280_pressure;Samples;Min_cycle;Max_cycle;Signal;HPM_P1;HPM_P2
2023/10/04 00:02:19;;;;;;;3.77;1.60;;;13.40;99.90;;;;;;5053939;28;20991;-73
2023/10/04 00:04:45;;;;;;;4.53;1.77;;;13.40;99.90;;;;;;5052625;28;20234;-72
2023/10/04 00:07:11;;;;;;;5.50;2.40;;;13.40;99.90;;;;;;5052639;28;20610;-72
2023/10/04 00:09:37;;;;;;;3.80;2.30;;;13.40;99.90;;;;;;5053782;28;20423;-72
2023/10/04 00:12:03;;;;;;;4.53;2.40;;;13.40;99.90;;;;;;5053709;28;20207;-72
2023/10/04 00:14:30;;;;;;;4.17;2.10;;;13.30;99.90;;;;;;5053697;28;20406;-72
2023/10/04 00:16:56;;;;;;;5.13;1.73;;;13.30;99.90;;;;;;5053707;28;20267;-72
2023/10/04 00:19:21;;;;;;;5.67;2.13;;;13.20;99.90;;;;;;5052453;28;20885;-72
2023/10/04 00:21:47;;;;;;;5.00;2.03;;;13.20;99.90;;;;;;5053621;28;20233;-72
2023/10/04 00:24:13;;;;;;;4.33;2.23;;;13.10;99.90;;;;;;5052167;28;20673;-72
2023/10/04 00:26:39;;;;;;;4.93;2.30;;;13.10;99.90;;;;;;5052294;28;20176;-72
2023/10/04 00:29:04;;;;;;;3.83;2.07;;;13.00;99.90;;;;;;5053415;28;20776;-72
2023/10/04 00:31:31;;;;;;;6.27;1.90;;;13.00;99.90;;;;;;5052088;28;20220;-72
2023/10/04 00:33:57;;;;;;;3.70;2.00;;;13.00;99.90;;;;;;5052154;28;20264;-72
2023/10/04 00:36:23;;;;;;;3.67;2.17;;;13.00;99.90;;;;;;5053448;28;20531;-72
2023/10/04 00:38:50;;;;;;;4.10;2.00;;;13.10;99.90;;;;;;5052162;28;20911;-72
2023/10/04 00:41:16;;;;;;;4.70;2.13;;;13.10;99.90;;;;;;5053255;28;20418;-72
2023/10/04 00:43:51;;;;;;;2.77;1.67;;;13.20;99.90;;;;;;5051860;28;20425;-72
2023/10/04 00:46:22;;;;;;;4.17;2.03;;;13.20;99.90;;;;;;5053111;28;21002;-72
2023/10/04 00:48:49;;;;;;;4.00;2.23;;;13.20;99.90;;;;;;5051897;28;20486;-72
2023/10/04 00:51:16;;;;;;;6.40;2.10;;;13.20;99.90;;;;;;5051652;28;20893;-72
2023/10/04 00:53:44;;;;;;;9.13;2.97;;;13.20;99.90;;;;;;5051732;28;20411;-72
2023/10/04 00:56:10;;;;;;;4.37;1.93;;;13.10;99.90;;;;;;5051407;28;20466;-72
2023/10/04 00:58:36;;;;;;;4.30;2.37;;;13.10;99.90;;;;;;5052953;28;20514;-72
2023/10/04 01:01:04;;;;;;;3.33;2.20;;;13.10;99.90;;;;;;5052047;28;20494;-72
2023/10/04 01:03:34;;;;;;;3.17;1.83;;;13.10;99.90;;;;;;5052817;28;20414;-72
2023/10/04 01:06:01;;;;;;;7.77;2.30;;;13.10;99.90;;;;;;5035488;28;20442;-72
2023/10/04 01:08:28;;;;;;;7.13;2.17;;;13.10;99.90;;;;;;5052742;28;20418;-72
2023/10/04 01:10:54;;;;;;;3.60;2.27;;;13.10;99.90;;;;;;5051136;28;20461;-72
2023/10/04 01:13:26;;;;;;;3.00;1.83;;;13.00;99.90;;;;;;5051584;28;20798;-72
2023/10/04 01:15:55;;;;;;;12.40;1.93;;;12.90;99.90;;;;;;5052601;28;20441;-73
2023/10/04 01:18:22;;;;;;;6.17;2.03;;;12.80;99.90;;;;;;5052581;28;20465;-72
2023/10/04 01:20:49;;;;;;;5.67;2.43;;;12.90;99.90;;;;;;5052500;28;20936;-72
2023/10/04 01:23:15;;;;;;;4.40;2.13;;;12.80;99.90;;;;;;5052424;28;20768;-72
2023/10/04 01:25:44;;;;;;;3.07;2.00;;;12.80;99.90;;;;;;5052254;28;20443;-72
2023/10/04 01:28:17;;;;;;;4.40;2.50;;;12.80;99.90;;;;;;5052260;28;20497;-72
2023/10/04 01:30:45;;;;;;;4.20;2.17;;;12.70;99.90;;;;;;5050861;28;20509;-72
2023/10/04 01:33:23;;;;;;;3.70;2.00;;;12.70;99.90;;;;;;5052197;28;20421;-72
2023/10/04 01:35:53;;;;;;;9.80;2.60;;;12.70;99.90;;;;;;5050743;28;20857;-73
2023/10/04 01:38:24;;;;;;;2.90;2.03;;;12.80;99.90;;;;;;5052182;28;20792;-72
2023/10/04 01:40:51;;;;;;;2.80;1.90;;;12.60;99.90;;;;;;5052165;28;20411;-72
2023/10/04 01:43:16;;;;;;;4.03;2.23;;;12.50;99.90;;;;;;5052027;28;20422;-73
2023/10/04 01:45:55;;;;;;;3.07;2.10;;;12.50;99.90;;;;;;5050697;28;20441;-72
2023/10/04 01:48:21;;;;;;;4.10;1.97;;;12.40;99.90;;;;;;5051996;28;20186;-72
2023/10/04 01:50:48;;;;;;;5.13;2.17;;;12.40;99.90;;;;;;5050466;28;20531;-72
2023/10/04 01:53:15;;;;;;;3.03;1.80;;;12.40;99.90;;;;;;5051875;28;20422;-72
2023/10/04 01:55:41;;;;;;;4.70;1.90;;;12.30;99.90;;;;;;5050235;28;20976;-72
2023/10/04 01:58:08;;;;;;;5.93;2.47;;;12.30;99.90;;;;;;5051803;28;20429;-72
2023/10/04 02:00:34;;;;;;;3.53;2.03;;;12.20;99.90;;;;;;5050320;28;20423;-73
2023/10/04 02:03:01;;;;;;;5.40;2.03;;;12.20;99.90;;;;;;5051699;28;20415;-72
2023/10/04 02:05:37;;;;;;;4.33;2.33;;;12.20;99.90;;;;;;5051685;28;20605;-72
2023/10/04 02:08:12;;;;;;;4.93;2.00;;;12.20;99.90;;;;;;5050268;28;20426;-72
2023/10/04 02:10:38;;;;;;;4.87;1.90;;;12.10;99.90;;;;;;5051551;28;20985;-72
2023/10/04 02:13:08;;;;;;;2.83;1.70;;;12.00;99.90;;;;;;5051472;28;20772;-72
2023/10/04 02:15:37;;;;;;;4.83;2.03;;;11.90;99.90;;;;;;5051400;28;20442;-73
2023/10/04 02:18:04;;;;;;;3.60;1.80;;;11.60;99.90;;;;;;5050172;28;20412;-72
2023/10/04 02:20:33;;;;;;;5.20;2.63;;;11.40;99.90;;;;;;5051450;28;20423;-72
2023/10/04 02:22:58;;;;;;;7.73;2.13;;;11.40;99.90;;;;;;5051350;28;20794;-72
2023/10/04 02:25:24;;;;;;;3.20;1.87;;;11.50;99.90;;;;;;5051303;28;20442;-72
2023/10/04 02:27:55;;;;;;;4.13;1.87;;;11.50;99.90;;;;;;5049937;28;20190;-72
2023/10/04 02:30:26;;;;;;;4.50;2.33;;;11.60;99.90;;;;;;5051268;28;20467;-72
2023/10/04 02:32:52;;;;;;;3.90;1.73;;;11.70;99.90;;;;;;5051383;28;20464;-72
2023/10/04 02:35:33;;;;;;;4.40;2.00;;;11.80;99.90;;;;;;5051130;28;20864;-72
2023/10/04 02:38:00;;;;;;;4.27;2.30;;;11.90;99.90;;;;;;5051258;28;20847;-72
2023/10/04 02:40:32;;;;;;;6.53;2.20;;;11.90;99.90;;;;;;5051198;28;20419;-72
2023/10/04 02:42:59;;;;;;;7.17;2.27;;;12.00;99.90;;;;;;5034062;28;20437;-72
2023/10/04 02:45:26;;;;;;;6.50;2.07;;;12.10;99.90;;;;;;5051071;28;20438;-72
2023/10/04 02:47:52;;;;;;;4.20;2.10;;;12.10;99.90;;;;;;5051168;28;20413;-72
2023/10/04 02:50:21;;;;;;;4.43;2.33;;;12.00;99.90;;;;;;5049753;28;20421;-72
2023/10/04 02:52:47;;;;;;;6.73;2.10;;;11.90;99.90;;;;;;5049682;28;20927;-72
2023/10/04 02:55:17;;;;;;;3.37;2.10;;;11.80;99.90;;;;;;5051010;28;20445;-72
2023/10/04 02:57:49;;;;;;;5.60;2.20;;;11.90;99.90;;;;;;5051028;28;20433;-72
2023/10/04 03:00:16;;;;;;;3.97;2.33;;;11.80;99.90;;;;;;5050986;28;20448;-72
2023/10/04 03:02:47;;;;;;;3.87;2.17;;;11.80;99.90;;;;;;5033380;28;20422;-72
2023/10/04 03:05:15;;;;;;;4.73;2.30;;;12.00;99.90;;;;;;5050916;28;20433;-72
2023/10/04 03:07:41;;;;;;;5.83;1.90;;;11.90;99.90;;;;;;5050939;28;20419;-72
2023/10/04 03:10:10;;;;;;;2.77;2.00;;;11.80;99.90;;;;;;5049710;28;20492;-73
2023/10/04 03:12:36;;;;;;;4.77;2.70;;;11.80;99.90;;;;;;5050878;28;20462;-72
2023/10/04 03:15:02;;;;;;;6.73;3.00;;;11.80;99.90;;;;;;5050802;28;20519;-72
2023/10/04 03:17:27;;;;;;;5.40;2.17;;;11.80;99.90;;;;;;5049493;28;20634;-72
2023/10/04 03:19:53;;;;;;;4.03;2.00;;;11.80;99.90;;;;;;5050808;28;20179;-72
2023/10/04 03:22:23;;;;;;;5.83;2.20;;;11.80;99.90;;;;;;5049472;28;20657;-72
2023/10/04 03:24:51;;;;;;;6.00;2.03;;;11.80;99.90;;;;;;5053007;28;20200;-72
2023/10/04 03:27:21;;;;;;;5.13;2.40;;;11.70;99.90;;;;;;5054832;28;20423;-72
2023/10/04 03:29:51;;;;;;;4.40;2.20;;;11.80;99.90;;;;;;5054585;28;20928;-72
2023/10/04 03:32:18;;;;;;;3.90;2.10;;;11.70;99.90;;;;;;5054527;28;20511;-72
2023/10/04 03:34:44;;;;;;;4.63;1.93;;;11.80;99.90;;;;;;5054458;28;20441;-72
2023/10/04 03:37:13;;;;;;;7.87;2.10;;;11.80;99.90;;;;;;5054434;28;20502;-72
2023/10/04 03:39:40;;;;;;;4.17;1.80;;;11.70;99.90;;;;;;5054397;28;20548;-72
2023/10/04 03:42:05;;;;;;;6.07;2.70;;;11.70;99.90;;;;;;5053018;28;20433;-72
2023/10/04 03:44:31;;;;;;;4.80;2.07;;;11.70;99.90;;;;;;5054233;28;20432;-72
2023/10/04 03:46:57;;;;;;;6.07;1.80;;;11.70;99.90;;;;;;5054264;28;20187;-72
2023/10/04 03:49:24;;;;;;;4.13;2.17;;;11.70;99.90;;;;;;5054220;28;20445;-72
2023/10/04 03:51:52;;;;;;;4.37;1.80;;;11.60;99.90;;;;;;5054135;28;20206;-72
2023/10/04 03:54:19;;;;;;;4.70;2.67;;;11.60;99.90;;;;;;5052902;28;20450;-72
2023/10/04 03:56:45;;;;;;;4.40;2.57;;;11.60;99.90;;;;;;5054116;28;20476;-72
2023/10/04 03:59:11;;;;;;;6.00;2.43;;;11.60;99.90;;;;;;5054029;28;20438;-72
2023/10/04 04:01:37;;;;;;;4.63;1.80;;;11.60;99.90;;;;;;5054080;28;20552;-72
2023/10/04 04:04:04;;;;;;;6.27;2.30;;;11.60;99.90;;;;;;5052587;28;20427;-72
2023/10/04 04:06:30;;;;;;;8.37;2.60;;;11.60;99.90;;;;;;5053723;28;20498;-72
2023/10/04 04:08:58;;;;;;;12.63;2.97;;;11.60;99.90;;;;;;5053926;28;20464;-72
2023/10/04 04:11:24;;;;;;;8.17;2.37;;;11.60;99.90;;;;;;5053736;28;20500;-72
2023/10/04 04:13:49;;;;;;;5.13;2.40;;;11.60;99.90;;;;;;5052368;28;20804;-72
2023/10/04 04:16:17;;;;;;;6.53;2.50;;;11.70;99.90;;;;;;5053660;28;20533;-72
2023/10/04 04:18:44;;;;;;;4.57;2.60;;;11.70;99.90;;;;;;5053648;28;20277;-72
2023/10/04 04:21:10;;;;;;;3.40;1.43;;;11.70;99.90;;;;;;5052429;28;20487;-72
2023/10/04 04:23:36;;;;;;;4.37;1.90;;;11.80;99.90;;;;;;5053557;28;20493;-73
2023/10/04 04:26:05;;;;;;;3.37;1.90;;;11.80;99.90;;;;;;5053491;28;20210;-72
2023/10/04 04:28:37;;;;;;;7.03;2.37;;;11.90;99.90;;;;;;5053537;28;20445;-72
2023/10/04 04:31:14;;;;;;;6.07;2.07;;;11.80;99.90;;;;;;5053388;28;20966;-72
2023/10/04 04:33:40;;;;;;;7.20;2.67;;;11.90;99.90;;;;;;5053436;28;20861;-72
2023/10/04 04:36:11;;;;;;;6.20;2.33;;;11.90;99.90;;;;;;5052353;28;20770;-72
2023/10/04 04:38:40;;;;;;;5.50;2.80;;;11.90;99.90;;;;;;5053571;28;20818;-72
2023/10/04 04:41:12;;;;;;;5.80;2.50;;;11.90;99.90;;;;;;5051869;28;20433;-73
2023/10/04 04:43:38;;;;;;;5.20;2.30;;;11.90;99.90;;;;;;5053193;28;20440;-72
2023/10/04 04:46:12;;;;;;;3.00;2.00;;;11.80;99.90;;;;;;5051880;28;20442;-72
2023/10/04 04:48:38;;;;;;;3.20;1.83;;;11.80;99.90;;;;;;5053108;28;20649;-71
2023/10/04 04:51:11;;;;;;;7.27;1.90;;;11.80;99.90;;;;;;5052993;28;20518;-73
2023/10/04 04:53:43;;;;;;;4.93;2.40;;;11.80;99.90;;;;;;5053069;28;20446;-72
2023/10/04 04:56:12;;;;;;;4.00;2.30;;;11.80;99.90;;;;;;5052747;28;20470;-72
2023/10/04 04:58:39;;;;;;;8.33;2.53;;;11.60;99.90;;;;;;5053080;28;20409;-72
2023/10/04 05:01:08;;;;;;;6.77;2.40;;;11.60;99.90;;;;;;5051467;28;20482;-72
2023/10/04 05:03:34;;;;;;;7.83;2.40;;;11.60;99.90;;;;;;5052786;28;20429;-73
2023/10/04 05:06:00;;;;;;;3.53;1.97;;;11.40;99.90;;;;;;5051466;28;20477;-73
2023/10/04 05:08:26;;;;;;;3.73;2.33;;;11.40;99.90;;;;;;5052723;28;20925;-73
2023/10/04 05:10:54;;;;;;;6.43;2.30;;;11.40;99.90;;;;;;5052663;28;20349;-72
2023/10/04 05:13:23;;;;;;;15.57;2.53;;;11.40;99.90;;;;;;5052559;28;20180;-73
2023/10/04 05:15:49;;;;;;;3.50;2.37;;;11.30;99.90;;;;;;5052535;28;20470;-73
2023/10/04 05:18:17;;;;;;;6.27;2.50;;;11.30;99.90;;;;;;5051242;28;20425;-73
2023/10/04 05:20:45;;;;;;;3.40;2.20;;;11.20;99.90;;;;;;5052440;28;20426;-73
2023/10/04 05:23:11;;;;;;;5.80;2.17;;;11.30;99.90;;;;;;5052490;28;20414;-73
2023/10/04 05:25:36;;;;;;;4.10;2.20;;;11.20;99.90;;;;;;5052424;28;20816;-73
2023/10/04 05:28:09;;;;;;;6.43;2.00;;;11.20;99.90;;;;;;5052451;28;20903;-72
2023/10/04 05:30:37;;;;;;;6.03;2.40;;;11.20;99.90;;;;;;5051015;28;20937;-72
2023/10/04 05:33:03;;;;;;;4.40;1.97;;;11.20;99.90;;;;;;5052289;28;20946;-74
2023/10/04 05:35:28;;;;;;;5.00;2.27;;;11.20;99.90;;;;;;5052175;28;20922;-73
2023/10/04 05:37:54;;;;;;;3.97;2.50;;;11.30;99.90;;;;;;5051986;28;20414;-73
2023/10/04 05:40:27;;;;;;;4.00;1.90;;;11.30;99.90;;;;;;5050860;28;20180;-72
2023/10/04 05:42:53;;;;;;;5.30;2.60;;;11.30;99.90;;;;;;5035166;28;20852;-72
2023/10/04 05:45:23;;;;;;;4.37;2.40;;;11.30;99.90;;;;;;5034088;28;20898;-72
2023/10/04 05:47:52;;;;;;;7.37;2.63;;;11.20;99.90;;;;;;5051752;28;20450;-73
2023/10/04 05:50:21;;;;;;;5.70;2.20;;;11.20;99.90;;;;;;5051963;28;20409;-73
2023/10/04 05:52:50;;;;;;;5.60;2.40;;;11.30;99.90;;;;;;5051910;28;20434;-72
2023/10/04 05:55:20;;;;;;;8.53;2.47;;;11.10;99.90;;;;;;5051798;28;20457;-72
2023/10/04 05:57:48;;;;;;;5.87;2.33;;;11.10;99.90;;;;;;5051826;28;20448;-72
2023/10/04 06:00:25;;;;;;;5.03;2.53;;;11.00;99.90;;;;;;5051867;28;20437;-73
2023/10/04 06:02:52;;;;;;;3.57;1.90;;;11.00;99.90;;;;;;5050442;28;20516;-73
2023/10/04 06:05:19;;;;;;;5.83;2.27;;;11.00;99.90;;;;;;5051670;28;20437;-73
2023/10/04 06:07:46;;;;;;;5.00;2.00;;;11.10;99.90;;;;;;5050236;28;20947;-72
2023/10/04 06:10:14;;;;;;;8.43;2.13;;;11.20;99.90;;;;;;5051656;28;20421;-73
2023/10/04 06:12:39;;;;;;;4.57;2.27;;;11.40;99.90;;;;;;5051487;28;20471;-72
2023/10/04 06:15:10;;;;;;;3.97;2.10;;;11.50;99.90;;;;;;5050159;28;20453;-72
2023/10/04 06:17:41;;;;;;;5.40;2.70;;;11.60;99.90;;;;;;5051620;28;20201;-73
2023/10/04 06:20:23;;;;;;;7.93;2.47;;;11.70;99.90;;;;;;5050220;28;21003;-73
2023/10/04 06:22:52;;;;;;;4.20;1.90;;;11.70;99.90;;;;;;5051722;28;20487;-72
2023/10/04 06:25:20;;;;;;;6.70;2.30;;;11.80;99.90;;;;;;5051299;28;20493;-72
2023/10/04 06:27:45;;;;;;;4.83;2.00;;;11.80;99.90;;;;;;5051397;28;20412;-72
2023/10/04 06:30:12;;;;;;;5.10;2.20;;;11.90;99.90;;;;;;5050122;28;20410;-72
2023/10/04 06:32:38;;;;;;;5.60;1.80;;;12.00;99.90;;;;;;5051245;28;20213;-73
2023/10/04 06:35:06;;;;;;;3.00;1.90;;;12.10;99.90;;;;;;5051164;28;20943;-73
2023/10/04 06:37:31;;;;;;;7.67;2.40;;;12.10;99.90;;;;;;5051476;28;20841;-73
2023/10/04 06:39:57;;;;;;;2.93;1.97;;;12.30;99.90;;;;;;5051245;28;20414;-72
2023/10/04 06:42:23;;;;;;;5.37;2.30;;;12.40;99.90;;;;;;5051160;28;20217;-72
2023/10/04 06:44:49;;;;;;;4.60;2.30;;;12.50;99.90;;;;;;5049843;28;20204;-73
2023/10/04 06:47:17;;;;;;;4.60;1.97;;;12.60;99.90;;;;;;5033429;28;20183;-72
2023/10/04 06:49:43;;;;;;;3.37;1.90;;;12.70;99.90;;;;;;5051216;28;20418;-73
2023/10/04 06:52:08;;;;;;;5.40;2.63;;;12.80;99.90;;;;;;5049876;28;20468;-73
2023/10/04 06:54:34;;;;;;;6.27;2.20;;;12.90;99.90;;;;;;5051023;28;20265;-73
2023/10/04 06:57:00;;;;;;;5.00;2.40;;;13.00;99.90;;;;;;5051005;28;20203;-73
2023/10/04 06:59:26;;;;;;;4.83;2.30;;;13.10;99.90;;;;;;5052847;28;20406;-73
2023/10/04 07:01:51;;;;;;;5.03;2.17;;;13.10;99.90;;;;;;5037488;28;20230;-73
2023/10/04 07:04:18;;;;;;;7.30;2.50;;;13.20;99.90;;;;;;5053723;28;20184;-73
2023/10/04 07:06:44;;;;;;;4.70;2.17;;;13.20;99.90;;;;;;5037277;28;20199;-72
2023/10/04 07:09:10;;;;;;;2.50;1.63;;;13.30;99.90;;;;;;5055111;28;20445;-73
2023/10/04 07:11:36;;;;;;;3.13;1.63;;;13.30;99.90;;;;;;5054894;28;20200;-73
2023/10/04 07:14:04;;;;;;;3.60;1.90;;;13.30;99.90;;;;;;5054966;28;20417;-73
2023/10/04 07:16:30;;;;;;;4.57;2.00;;;13.40;99.90;;;;;;5054821;28;20430;-74
2023/10/04 07:18:57;;;;;;;5.40;1.60;;;13.50;99.90;;;;;;5020401;28;20426;-73
2023/10/04 07:21:23;;;;;;;4.83;2.23;;;13.50;99.90;;;;;;5054887;28;20483;-73
2023/10/04 07:23:48;;;;;;;4.67;2.37;;;13.60;99.90;;;;;;5036808;28;20426;-73
2023/10/04 07:26:14;;;;;;;3.97;1.97;;;13.60;99.90;;;;;;5054679;28;20544;-73
2023/10/04 07:28:41;;;;;;;4.17;2.13;;;13.70;99.90;;;;;;5054709;28;20256;-73
2023/10/04 07:31:07;;;;;;;7.40;2.00;;;13.80;99.90;;;;;;5054465;28;20204;-73
2023/10/04 07:33:33;;;;;;;3.57;1.80;;;13.80;99.90;;;;;;5054422;28;20467;-73
2023/10/04 07:35:59;;;;;;;3.63;1.70;;;13.90;99.90;;;;;;5054442;28;20816;-73
2023/10/04 07:38:25;;;;;;;3.50;2.03;;;13.90;99.90;;;;;;5053352;28;20416;-73
2023/10/04 07:40:50;;;;;;;3.30;1.80;;;14.00;99.90;;;;;;5053184;28;20836;-73
2023/10/04 07:43:16;;;;;;;3.30;1.90;;;14.10;99.90;;;;;;5054488;28;20186;-73
2023/10/04 07:45:41;;;;;;;7.40;2.07;;;14.10;99.90;;;;;;5054265;28;20587;-73
2023/10/04 07:48:10;;;;;;;3.80;2.03;;;14.20;99.90;;;;;;5054234;28;20654;-73
2023/10/04 07:50:36;;;;;;;4.83;2.50;;;14.30;99.90;;;;;;5054181;28;20681;-73
2023/10/04 07:53:06;;;;;;;7.90;2.17;;;14.30;99.90;;;;;;5052983;28;20407;-73
2023/10/04 07:55:33;;;;;;;6.10;1.87;;;14.40;99.90;;;;;;5054008;28;20202;-73
2023/10/04 07:58:06;;;;;;;4.20;1.97;;;14.40;99.90;;;;;;5054133;28;20915;-73
2023/10/04 08:00:36;;;;;;;5.80;1.97;;;14.50;99.90;;;;;;5054117;28;20443;-74
2023/10/04 08:03:03;;;;;;;4.30;2.00;;;14.60;99.90;;;;;;5054493;28;20444;-73
2023/10/04 08:05:31;;;;;;;4.67;2.47;;;14.70;99.90;;;;;;5054077;28;20427;-73
2023/10/04 08:08:02;;;;;;;3.83;1.90;;;14.80;99.90;;;;;;5052590;28;20412;-73
2023/10/04 08:10:29;;;;;;;6.30;2.13;;;14.90;99.90;;;;;;5053514;28;20408;-73
2023/10/04 08:12:59;;;;;;;2.63;1.60;;;14.90;99.90;;;;;;5053890;28;20410;-73
2023/10/04 08:15:26;;;;;;;5.30;2.07;;;15.00;99.90;;;;;;5053770;28;20452;-73
2023/10/04 08:17:52;;;;;;;4.57;1.60;;;15.10;99.90;;;;;;5053757;28;20989;-73
2023/10/04 08:20:20;;;;;;;5.73;2.03;;;15.20;99.90;;;;;;5053521;28;20423;-73
2023/10/04 08:22:46;;;;;;;8.57;2.07;;;15.20;99.90;;;;;;5052196;28;20477;-73
2023/10/04 08:25:16;;;;;;;4.60;1.73;;;15.30;99.90;;;;;;5053616;28;20485;-73
2023/10/04 08:27:42;;;;;;;3.70;1.60;;;15.50;99.90;;;;;;5052216;28;20447;-74
2023/10/04 08:30:12;;;;;;;3.93;1.57;;;15.50;99.90;;;;;;5035640;28;20438;-74
2023/10/04 08:32:42;;;;;;;4.70;1.73;;;15.50;99.90;;;;;;5053500;28;20515;-74
2023/10/04 08:35:21;;;;;;;6.30;1.87;;;15.60;99.90;;;;;;5053607;28;20435;-74
2023/10/04 08:37:57;;;;;;;3.07;1.70;;;15.60;99.90;;;;;;5053512;28;20418;-74
2023/10/04 08:40:28;;;;;;;7.10;1.87;;;15.70;99.90;;;;;;5053341;28;20425;-74
2023/10/04 08:42:55;;;;;;;5.43;1.67;;;15.70;99.90;;;;;;5053322;28;20912;-74
2023/10/04 08:45:22;;;;;;;4.57;1.50;;;15.80;99.90;;;;;;5051802;28;20455;-73
2023/10/04 08:47:50;;;;;;;4.40;1.63;;;16.00;99.90;;;;;;5051990;28;20429;-74
2023/10/04 08:50:20;;;;;;;3.97;1.43;;;16.10;99.90;;;;;;5053181;28;20470;-73
2023/10/04 08:52:47;;;;;;;3.97;1.63;;;16.00;99.90;;;;;;5053128;28;20996;-73
2023/10/04 09:02:07;;;;;;;5.73;1.50;;;16.60;99.90;;;;;;5054680;28;20429;-73
2023/10/04 09:04:35;;;;;;;4.67;1.67;;;16.40;99.90;;;;;;5053657;28;20444;-73
2023/10/04 09:07:02;;;;;;;10.83;1.87;;;16.90;99.90;;;;;;5052888;28;20419;-73
2023/10/04 09:09:32;;;;;;;5.27;1.63;;;16.80;99.90;;;;;;5052852;28;20421;-72
2023/10/04 09:11:58;;;;;;;6.93;2.10;;;17.10;99.90;;;;;;5051284;28;20652;-74
2023/10/04 09:14:25;;;;;;;7.10;1.70;;;17.80;99.90;;;;;;5052663;28;20509;-74
2023/10/04 09:17:25;;;;;;;3.47;1.83;;;18.40;99.90;;;;;;5051431;28;20176;-73
2023/10/04 09:19:52;;;;;;;6.37;2.33;;;18.20;99.80;;;;;;5040194;28;20997;-73
2023/10/04 09:22:29;;;;;;;10.70;2.00;;;18.50;99.90;;;;;;5051880;28;20439;-73
2023/10/04 09:24:56;;;;;;;6.07;1.80;;;19.40;99.40;;;;;;5051060;28;20443;-73
2023/10/04 09:27:22;;;;;;;4.40;2.00;;;19.60;95.70;;;;;;5051133;28;20426;-73
2023/10/04 09:29:49;;;;;;;8.23;1.60;;;19.90;95.10;;;;;;5052323;28;20410;-73
2023/10/04 09:32:38;;;;;;;4.53;1.70;;;19.50;95.30;;;;;;5051135;28;21363;-74
2023/10/04 09:35:04;;;;;;;4.13;1.90;;;18.90;96.70;;;;;;5052401;28;20443;-73
2023/10/04 09:37:30;;;;;;;7.53;1.80;;;18.70;99.90;;;;;;5052431;28;20414;-73
2023/10/04 09:40:12;;;;;;;3.70;1.63;;;18.40;96.60;;;;;;5034364;28;20799;-74
2023/10/04 09:43:04;;;;;;;7.53;1.77;;;18.10;97.70;;;;;;5050927;28;20556;-73
2023/10/04 09:45:31;;;;;;;4.80;1.47;;;18.80;97.00;;;;;;5049575;28;20450;-73
2023/10/04 09:48:02;;;;;;;5.83;1.40;;;19.30;95.30;;;;;;5052079;28;20498;-73
2023/10/04 09:50:28;;;;;;;5.13;1.83;;;20.30;93.30;;;;;;5050773;28;20422;-73
2023/10/04 09:52:54;;;;;;;2.90;1.53;;;20.90;92.50;;;;;;5052017;28;20922;-74
2023/10/04 09:55:23;;;;;;;2.33;1.40;;;21.40;89.00;;;;;;5051798;28;20445;-74
2023/10/04 09:57:49;;;;;;;5.87;1.87;;;21.20;86.90;;;;;;5051928;28;20176;-74
2023/10/04 10:00:18;;;;;;;5.70;1.80;;;21.40;84.50;;;;;;5051827;28;20418;-73
2023/10/04 10:02:51;;;;;;;4.70;1.73;;;20.90;85.20;;;;;;5051989;28;20420;-74
2023/10/04 10:05:21;;;;;;;4.50;1.60;;;20.60;87.60;;;;;;5051755;28;20437;-74
2023/10/04 10:07:48;;;;;;;4.37;1.43;;;21.20;87.90;;;;;;5050290;28;20503;-74
2023/10/04 10:10:16;;;;;;;5.53;1.83;;;21.10;84.40;;;;;;5051734;28;20418;-74
2023/10/04 10:12:46;;;;;;;6.17;1.43;;;20.90;82.30;;;;;;5050197;28;20565;-73
2023/10/04 10:15:13;;;;;;;3.70;1.50;;;21.30;85.00;;;;;;5050211;28;20818;-74
2023/10/04 10:17:40;;;;;;;3.63;1.60;;;21.90;80.60;;;;;;5050248;28;20936;-73
2023/10/04 10:20:09;;;;;;;3.43;1.80;;;22.50;80.80;;;;;;5051404;28;20442;-74
2023/10/04 10:22:54;;;;;;;6.37;2.20;;;22.80;78.30;;;;;;5051449;28;20423;-72
2023/10/04 10:25:19;;;;;;;3.70;1.70;;;22.80;78.30;;;;;;5053757;28;20434;-72
2023/10/04 10:27:46;;;;;;;4.60;1.80;;;22.60;78.60;;;;;;5050124;28;20421;-72
2023/10/04 10:30:16;;;;;;;7.70;1.67;;;23.00;75.60;;;;;;5033561;28;20187;-73
2023/10/04 10:33:12;;;;;;;5.10;1.97;;;23.00;76.30;;;;;;5051319;28;20517;-74
2023/10/04 10:35:53;;;;;;;5.13;1.57;;;23.40;75.40;;;;;;5029181;28;20958;-74
2023/10/04 10:38:40;;;;;;;3.80;1.80;;;24.30;74.80;;;;;;5051306;28;20410;-74
2023/10/04 10:41:06;;;;;;;3.03;1.53;;;24.50;76.60;;;;;;5051266;28;20502;-74
2023/10/04 10:43:35;;;;;;;4.17;1.33;;;24.50;74.70;;;;;;5049938;28;20495;-72
2023/10/04 10:46:26;;;;;;;2.83;1.63;;;24.40;76.80;;;;;;5051173;28;20428;-74
2023/10/04 10:48:58;;;;;;;5.77;1.80;;;24.50;78.30;;;;;;5051236;28;20958;-74
2023/10/04 10:51:43;;;;;;;6.77;1.80;;;24.60;74.40;;;;;;5051090;28;20454;-74
2023/10/04 10:54:09;;;;;;;3.77;2.00;;;24.60;76.70;;;;;;5051085;28;20410;-74
2023/10/04 10:56:37;;;;;;;3.87;1.43;;;24.30;75.20;;;;;;5051003;28;20506;-74
2023/10/04 10:59:05;;;;;;;4.33;2.00;;;24.50;80.50;;;;;;5051527;28;20486;-74
2023/10/04 11:01:31;;;;;;;3.50;1.70;;;24.50;79.30;;;;;;5051026;28;20440;-74
2023/10/04 11:03:58;;;;;;;3.53;1.60;;;24.40;86.50;;;;;;5049754;28;20436;-74
2023/10/04 11:06:23;;;;;;;4.80;1.60;;;23.60;75.30;;;;;;5049691;28;20476;-74
2023/10/04 11:08:49;;;;;;;2.83;1.53;;;23.10;80.60;;;;;;5049728;28;20440;-73
2023/10/04 11:11:14;;;;;;;3.03;1.80;;;23.50;78.00;;;;;;5049575;28;20270;-73
2023/10/04 11:13:43;;;;;;;5.50;1.90;;;23.80;76.50;;;;;;5049682;28;20194;-74
2023/10/04 11:16:09;;;;;;;6.40;1.97;;;23.70;75.30;;;;;;5049647;28;20628;-73
2023/10/04 11:18:35;;;;;;;3.30;1.53;;;23.20;72.90;;;;;;5050914;28;20503;-73
2023/10/04 11:21:04;;;;;;;4.27;1.67;;;22.60;79.90;;;;;;5051252;28;20276;-73
2023/10/04 11:23:30;;;;;;;4.93;1.53;;;22.10;78.20;;;;;;5049558;28;20932;-73
2023/10/04 11:25:59;;;;;;;5.13;2.07;;;21.90;77.90;;;;;;5049414;28;20452;-73
2023/10/04 11:28:26;;;;;;;4.60;1.47;;;22.10;76.40;;;;;;5049470;28;20439;-73
2023/10/04 11:30:52;;;;;;;5.10;2.00;;;22.30;76.20;;;;;;5049343;28;21070;-73
2023/10/04 11:33:18;;;;;;;2.23;1.27;;;22.40;77.20;;;;;;5049364;28;20468;-73
2023/10/04 11:35:47;;;;;;;2.73;1.70;;;22.60;74.60;;;;;;5050639;28;20531;-73
2023/10/04 11:38:15;;;;;;;4.90;1.80;;;22.00;81.80;;;;;;5050754;28;20206;-73
2023/10/04 11:40:50;;;;;;;3.17;1.70;;;21.50;87.00;;;;;;5050755;28;20415;-73
2023/10/04 11:43:17;;;;;;;9.83;1.50;;;21.10;85.30;;;;;;5050767;28;20418;-74
2023/10/04 11:45:43;;;;;;;3.77;1.70;;;21.00;82.70;;;;;;5051238;28;21197;-74
2023/10/04 11:48:10;;;;;;;4.00;1.50;;;20.60;82.60;;;;;;5054301;28;20519;-74
2023/10/04 11:50:53;;;;;;;5.17;1.30;;;20.70;83.80;;;;;;5054438;28;20285;-73
2023/10/04 11:53:32;;;;;;;6.00;1.73;;;20.40;84.80;;;;;;5054251;28;20492;-73
2023/10/04 11:55:59;;;;;;;3.23;1.50;;;20.20;84.50;;;;;;5054085;28;20434;-73
2023/10/04 11:58:27;;;;;;;5.10;1.70;;;20.10;86.20;;;;;;5054184;28;20794;-73
2023/10/04 12:01:06;;;;;;;5.53;1.77;;;20.20;85.80;;;;;;5053978;28;20433;-73
2023/10/04 12:03:33;;;;;;;1.77;1.30;;;20.10;86.60;;;;;;5054229;28;20952;-73
2023/10/04 12:05:59;;;;;;;4.30;1.80;;;20.00;86.80;;;;;;5052635;28;20487;-73
2023/10/04 12:08:25;;;;;;;2.63;1.40;;;20.40;86.20;;;;;;5052642;28;20238;-73
2023/10/04 12:10:51;;;;;;;2.97;1.90;;;20.60;84.70;;;;;;5052503;28;20414;-73
2023/10/04 12:13:18;;;;;;;5.83;1.90;;;20.60;82.80;;;;;;5052526;28;20418;-73
2023/10/04 12:15:44;;;;;;;2.00;1.47;;;21.00;87.80;;;;;;5053729;28;20199;-73
2023/10/04 12:18:10;;;;;;;3.00;1.40;;;21.20;78.30;;;;;;5052601;28;20878;-73
2023/10/04 12:20:36;;;;;;;5.17;1.60;;;21.30;78.80;;;;;;5053727;28;20459;-73
2023/10/04 12:23:02;;;;;;;3.10;1.43;;;21.20;77.00;;;;;;5053699;28;20193;-72
2023/10/04 12:25:28;;;;;;;3.63;1.33;;;21.50;79.20;;;;;;5053616;28;20214;-72
2023/10/04 12:27:54;;;;;;;3.57;2.00;;;21.70;76.70;;;;;;5053437;28;20410;-74
2023/10/04 12:30:23;;;;;;;7.20;1.67;;;21.70;75.80;;;;;;5052220;28;20267;-73
2023/10/04 12:32:49;;;;;;;3.63;1.33;;;21.80;76.90;;;;;;5053447;28;20478;-73
2023/10/04 12:35:14;;;;;;;4.20;1.67;;;22.00;74.30;;;;;;5053376;28;20822;-74
2023/10/04 12:37:41;;;;;;;4.83;1.90;;;22.00;75.40;;;;;;5053420;28;20183;-73
2023/10/04 12:40:16;;;;;;;2.10;1.20;;;22.00;77.80;;;;;;5053429;28;20177;-74
2023/10/04 12:42:42;;;;;;;8.43;2.23;;;22.10;76.20;;;;;;5051896;28;20437;-74
2023/10/04 12:45:10;;;;;;;3.10;1.80;;;22.00;72.00;;;;;;5053216;28;20479;-73
2023/10/04 12:47:36;;;;;;;3.90;1.33;;;22.00;74.00;;;;;;5053272;28;20680;-73
2023/10/04 12:50:03;;;;;;;2.47;1.57;;;21.90;73.40;;;;;;5035212;28;20433;-73
2023/10/04 12:52:30;;;;;;;6.83;1.80;;;21.80;74.50;;;;;;5053160;28;20897;-73
2023/10/04 12:54:57;;;;;;;3.30;1.70;;;21.70;76.10;;;;;;5053003;28;20819;-73
2023/10/04 12:57:23;;;;;;;7.53;1.50;;;21.70;75.90;;;;;;5050870;28;21050;-73
2023/10/04 12:59:48;;;;;;;3.53;1.60;;;21.50;75.80;;;;;;5052987;28;20528;-73